sensor_id;sensor_type;location;lat;lon;timestamp;temperature;humidity
47022;DHT22;32779;52.264;6.154;2024-02-26T00:01:27;5.00;99.90
47022;DHT22;32779;52.264;6.154;2024-02-26T00:03:53;5.00;99.90
47022;DHT22;32779;52.264;6.154;2024-02-26T00:06:19;5.00;99.90
47022;DHT22;32779;52.264;6.154;2024-02-26T00:08:45;5.00;99.90
47022;DHT22;32779;52.264;6.154;2024-02-26T00:11:10;5.00;99.90
47022;DHT22;32779;52.264;6.154;2024-02-26T00:13:36;5.00;99.90
47022;DHT22;32779;52.264;6.154;2024-02-26T00:16:03;5.00;99.90
47022;DHT22;32779;52.264;6.154;2024-02-26T00:18:29;5.00;99.90
47022;DHT22;32779;52.264;6.154;2024-02-26T00:20:54;5.00;99.90
47022;DHT22;32779;52.264;6.154;2024-02-26T00:23:20;5.00;99.90
47022;DHT22;32779;52.264;6.154;2024-02-26T00:25:46;5.00;99.90
47022;DHT22;32779;52.264;6.154;2024-02-26T00:28:11;4.90;99.90
47022;DHT22;32779;52.264;6.154;2024-02-26T00:30:38;4.90;99.90
47022;DHT22;32779;52.264;6.154;2024-02-26T00:33:04;4.90;99.90
47022;DHT22;32779;52.264;6.154;2024-02-26T00:35:30;4.90;99.90
47022;DHT22;32779;52.264;6.154;2024-02-26T00:37:55;4.90;99.90
47022;DHT22;32779;52.264;6.154;2024-02-26T00:40:21;4.90;99.90
47022;DHT22;32779;52.264;6.154;2024-02-26T00:42:47;4.90;99.90
47022;DHT22;32779;52.264;6.154;2024-02-26T00:45:13;4.80;99.90
47022;DHT22;32779;52.264;6.154;2024-02-26T00:47:39;4.80;99.90
47022;DHT22;32779;52.264;6.154;2024-02-26T00:50:07;4.70;99.90
47022;DHT22;32779;52.264;6.154;2024-02-26T00:52:34;4.70;99.90
47022;DHT22;32779;52.264;6.154;2024-02-26T00:54:59;4.70;99.90
47022;DHT22;32779;52.264;6.154;2024-02-26T00:57:25;4.70;99.90
47022;DHT22;32779;52.264;6.154;2024-02-26T00:59:50;4.70;99.90
47022;DHT22;32779;52.264;6.154;2024-02-26T01:02:16;4.70;99.90
47022;DHT22;32779;52.264;6.154;2024-02-26T01:04:42;4.70;99.90
47022;DHT22;32779;52.264;6.154;2024-02-26T01:07:07;4.60;99.90
47022;DHT22;32779;52.264;6.154;2024-02-26T01:09:33;4.60;99.90
47022;DHT22;32779;52.264;6.154;2024-02-26T01:11:58;4.60;99.90
47022;DHT22;32779;52.264;6.154;2024-02-26T01:14:24;4.60;99.90
47022;DHT22;32779;52.264;6.154;2024-02-26T01:16:49;4.60;99.90
47022;DHT22;32779;52.264;6.154;2024-02-26T01:19:15;4.50;99.90
47022;DHT22;32779;52.264;6.154;2024-02-26T01:21:41;4.50;99.90
47022;DHT22;32779;52.264;6.154;2024-02-26T01:24:06;4.40;99.90
47022;DHT22;32779;52.264;6.154;2024-02-26T01:26:32;4.40;99.90
47022;DHT22;32779;52.264;6.154;2024-02-26T01:28:58;4.40;99.90
47022;DHT22;32779;52.264;6.154;2024-02-26T01:31:23;4.40;99.90
47022;DHT22;32779;52.264;6.154;2024-02-26T01:33:49;4.40;99.90
47022;DHT22;32779;52.264;6.154;2024-02-26T01:36:14;4.40;99.90
47022;DHT22;32779;52.264;6.154;2024-02-26T01:38:40;4.40;99.90
47022;DHT22;32779;52.264;6.154;2024-02-26T01:41:05;4.40;99.90
47022;DHT22;32779;52.264;6.154;2024-02-26T01:43:31;4.40;99.90
47022;DHT22;32779;52.264;6.154;2024-02-26T01:45:58;4.40;99.90
47022;DHT22;32779;52.264;6.154;2024-02-26T01:48:23;4.40;99.90
47022;DHT22;32779;52.264;6.154;2024-02-26T01:50:49;4.40;99.90
47022;DHT22;32779;52.264;6.154;2024-02-26T01:53:16;4.40;99.90
47022;DHT22;32779;52.264;6.154;2024-02-26T01:55:42;4.40;99.90
47022;DHT22;32779;52.264;6.154;2024-02-26T01:58:08;4.40;99.90
47022;DHT22;32779;52.264;6.154;2024-02-26T02:00:34;4.40;99.90
47022;DHT22;32779;52.264;6.154;2024-02-26T02:03:01;4.40;99.90
47022;DHT22;32779;52.264;6.154;2024-02-26T02:05:28;4.40;99.90
47022;DHT22;32779;52.264;6.154;2024-02-26T02:07:54;4.40;99.90
47022;DHT22;32779;52.264;6.154;2024-02-26T02:10:20;4.40;99.90
47022;DHT22;32779;52.264;6.154;2024-02-26T02:12:51;4.40;99.90
47022;DHT22;32779;52.264;6.154;2024-02-26T02:15:16;4.40;99.90
47022;DHT22;32779;52.264;6.154;2024-02-26T02:17:43;4.40;99.90
47022;DHT22;32779;52.264;6.154;2024-02-26T02:20:15;4.40;99.90
47022;DHT22;32779;52.264;6.154;2024-02-26T02:22:42;4.40;99.90
47022;DHT22;32779;52.264;6.154;2024-02-26T02:25:08;4.40;99.90
47022;DHT22;32779;52.264;6.154;2024-02-26T02:27:33;4.40;99.90
47022;DHT22;32779;52.264;6.154;2024-02-26T02:29:59;4.40;99.90
47022;DHT22;32779;52.264;6.154;2024-02-26T02:32:25;4.40;99.90
47022;DHT22;32779;52.264;6.154;2024-02-26T02:34:51;4.40;99.90
47022;DHT22;32779;52.264;6.154;2024-02-26T02:37:17;4.40;99.90
47022;DHT22;32779;52.264;6.154;2024-02-26T02:39:43;4.40;99.90
47022;DHT22;32779;52.264;6.154;2024-02-26T02:42:10;4.40;99.90
47022;DHT22;32779;52.264;6.154;2024-02-26T02:44:36;4.40;99.90
47022;DHT22;32779;52.264;6.154;2024-02-26T02:47:01;4.30;99.90
47022;DHT22;32779;52.264;6.154;2024-02-26T02:49:27;4.40;99.90
47022;DHT22;32779;52.264;6.154;2024-02-26T02:51:52;4.30;99.90
47022;DHT22;32779;52.264;6.154;2024-02-26T02:54:19;4.40;99.90
47022;DHT22;32779;52.264;6.154;2024-02-26T02:56:45;4.40;99.90
47022;DHT22;32779;52.264;6.154;2024-02-26T02:59:11;4.40;99.90
47022;DHT22;32779;52.264;6.154;2024-02-26T03:01:36;4.40;99.90
47022;DHT22;32779;52.264;6.154;2024-02-26T03:04:02;4.40;99.90
47022;DHT22;32779;52.264;6.154;2024-02-26T03:06:28;4.40;99.90
47022;DHT22;32779;52.264;6.154;2024-02-26T03:08:54;4.40;99.90
47022;DHT22;32779;52.264;6.154;2024-02-26T03:11:20;4.40;99.90
47022;DHT22;32779;52.264;6.154;2024-02-26T03:13:45;4.40;99.90
47022;DHT22;32779;52.264;6.154;2024-02-26T03:16:11;4.40;99.90
47022;DHT22;32779;52.264;6.154;2024-02-26T03:18:40;4.40;99.90
47022;DHT22;32779;52.264;6.154;2024-02-26T03:21:06;4.40;99.90
47022;DHT22;32779;52.264;6.154;2024-02-26T03:23:32;4.40;99.90
47022;DHT22;32779;52.264;6.154;2024-02-26T03:26:04;4.40;99.90
47022;DHT22;32779;52.264;6.154;2024-02-26T03:28:30;4.40;99.90
47022;DHT22;32779;52.264;6.154;2024-02-26T03:30:58;4.40;99.90
47022;DHT22;32779;52.264;6.154;2024-02-26T03:33:24;4.50;99.90
47022;DHT22;32779;52.264;6.154;2024-02-26T03:35:50;4.50;99.90
47022;DHT22;32779;52.264;6.154;2024-02-26T03:38:15;4.50;99.90
47022;DHT22;32779;52.264;6.154;2024-02-26T03:40:41;4.50;99.90
47022;DHT22;32779;52.264;6.154;2024-02-26T03:43:06;4.50;99.90
47022;DHT22;32779;52.264;6.154;2024-02-26T03:45:32;4.50;99.90
47022;DHT22;32779;52.264;6.154;2024-02-26T03:47:59;4.50;99.90
47022;DHT22;32779;52.264;6.154;2024-02-26T03:50:24;4.50;99.90
47022;DHT22;32779;52.264;6.154;2024-02-26T03:52:50;4.50;99.90
47022;DHT22;32779;52.264;6.154;2024-02-26T03:55:15;4.50;99.90
47022;DHT22;32779;52.264;6.154;2024-02-26T03:57:43;4.50;99.90
47022;DHT22;32779;52.264;6.154;2024-02-26T04:00:09;4.50;99.90
47022;DHT22;32779;52.264;6.154;2024-02-26T04:02:35;4.50;99.90
47022;DHT22;32779;52.264;6.154;2024-02-26T04:05:01;4.50;99.90
47022;DHT22;32779;52.264;6.154;2024-02-26T04:07:26;4.50;99.90
47022;DHT22;32779;52.264;6.154;2024-02-26T04:09:52;4.60;99.90
47022;DHT22;32779;52.264;6.154;2024-02-26T04:12:17;4.60;99.90
47022;DHT22;32779;52.264;6.154;2024-02-26T04:14:44;4.50;99.90
47022;DHT22;32779;52.264;6.154;2024-02-26T04:17:09;4.50;99.90
47022;DHT22;32779;52.264;6.154;2024-02-26T04:19:36;4.50;99.90
47022;DHT22;32779;52.264;6.154;2024-02-26T04:22:02;4.50;99.90
47022;DHT22;32779;52.264;6.154;2024-02-26T04:24:27;4.50;99.90
47022;DHT22;32779;52.264;6.154;2024-02-26T04:26:53;4.50;99.90
47022;DHT22;32779;52.264;6.154;2024-02-26T04:29:18;4.50;99.90
47022;DHT22;32779;52.264;6.154;2024-02-26T04:31:44;4.50;99.90
47022;DHT22;32779;52.264;6.154;2024-02-26T04:34:11;4.50;99.90
47022;DHT22;32779;52.264;6.154;2024-02-26T04:36:37;4.50;99.90
47022;DHT22;32779;52.264;6.154;2024-02-26T04:39:02;4.50;99.90
47022;DHT22;32779;52.264;6.154;2024-02-26T04:41:28;4.50;99.90
47022;DHT22;32779;52.264;6.154;2024-02-26T04:43:53;4.50;99.90
47022;DHT22;32779;52.264;6.154;2024-02-26T04:46:19;4.50;99.90
47022;DHT22;32779;52.264;6.154;2024-02-26T04:48:47;4.60;99.90
47022;DHT22;32779;52.264;6.154;2024-02-26T04:51:12;4.50;99.90
47022;DHT22;32779;52.264;6.154;2024-02-26T04:53:38;4.60;99.90
47022;DHT22;32779;52.264;6.154;2024-02-26T04:56:04;4.60;99.90
47022;DHT22;32779;52.264;6.154;2024-02-26T04:58:30;4.60;99.90
47022;DHT22;32779;52.264;6.154;2024-02-26T05:00:55;4.60;99.90
47022;DHT22;32779;52.264;6.154;2024-02-26T05:03:21;4.60;99.90
47022;DHT22;32779;52.264;6.154;2024-02-26T05:05:47;4.60;99.90
47022;DHT22;32779;52.264;6.154;2024-02-26T05:08:12;4.60;99.90
47022;DHT22;32779;52.264;6.154;2024-02-26T05:10:38;4.60;99.90
47022;DHT22;32779;52.264;6.154;2024-02-26T05:13:08;4.70;99.90
47022;DHT22;32779;52.264;6.154;2024-02-26T05:15:35;4.70;99.90
47022;DHT22;32779;52.264;6.154;2024-02-26T05:18:00;4.70;99.90
47022;DHT22;32779;52.264;6.154;2024-02-26T05:20:26;4.70;99.90
47022;DHT22;32779;52.264;6.154;2024-02-26T05:22:51;4.70;99.90
47022;DHT22;32779;52.264;6.154;2024-02-26T05:25:17;4.70;99.90
47022;DHT22;32779;52.264;6.154;2024-02-26T05:27:43;4.70;99.90
47022;DHT22;32779;52.264;6.154;2024-02-26T05:30:10;4.70;99.90
47022;DHT22;32779;52.264;6.154;2024-02-26T05:32:35;4.70;99.90
47022;DHT22;32779;52.264;6.154;2024-02-26T05:35:01;4.70;99.90
47022;DHT22;32779;52.264;6.154;2024-02-26T05:37:29;4.70;99.90
47022;DHT22;32779;52.264;6.154;2024-02-26T05:39:55;4.70;99.90
47022;DHT22;32779;52.264;6.154;2024-02-26T05:42:20;4.70;99.90
47022;DHT22;32779;52.264;6.154;2024-02-26T05:44:46;4.70;99.90
47022;DHT22;32779;52.264;6.154;2024-02-26T05:47:12;4.70;99.90
47022;DHT22;32779;52.264;6.154;2024-02-26T05:49:39;4.70;99.90
47022;DHT22;32779;52.264;6.154;2024-02-26T05:52:05;4.70;99.90
47022;DHT22;32779;52.264;6.154;2024-02-26T05:54:30;4.70;99.90
47022;DHT22;32779;52.264;6.154;2024-02-26T05:56:56;4.80;99.90
47022;DHT22;32779;52.264;6.154;2024-02-26T05:59:22;4.70;99.90
47022;DHT22;32779;52.264;6.154;2024-02-26T06:01:48;4.80;99.90
47022;DHT22;32779;52.264;6.154;2024-02-26T06:04:13;4.80;99.90
47022;DHT22;32779;52.264;6.154;2024-02-26T06:06:39;4.70;99.90
47022;DHT22;32779;52.264;6.154;2024-02-26T06:09:04;4.80;99.90
47022;DHT22;32779;52.264;6.154;2024-02-26T06:11:30;4.70;99.90
47022;DHT22;32779;52.264;6.154;2024-02-26T06:13:56;4.70;99.90
47022;DHT22;32779;52.264;6.154;2024-02-26T06:16:22;4.80;99.90
47022;DHT22;32779;52.264;6.154;2024-02-26T06:18:47;4.80;99.90
47022;DHT22;32779;52.264;6.154;2024-02-26T06:21:13;4.70;99.90
47022;DHT22;32779;52.264;6.154;2024-02-26T06:23:39;4.80;99.90
47022;DHT22;32779;52.264;6.154;2024-02-26T06:26:05;4.70;99.90
47022;DHT22;32779;52.264;6.154;2024-02-26T06:28:31;4.80;99.90
47022;DHT22;32779;52.264;6.154;2024-02-26T06:31:01;4.80;99.90
47022;DHT22;32779;52.264;6.154;2024-02-26T06:33:26;4.80;99.90
47022;DHT22;32779;52.264;6.154;2024-02-26T06:35:52;4.80;99.90
47022;DHT22;32779;52.264;6.154;2024-02-26T06:38:17;4.80;99.90
47022;DHT22;32779;52.264;6.154;2024-02-26T06:40:44;4.80;99.90
47022;DHT22;32779;52.264;6.154;2024-02-26T06:43:10;4.80;99.90
47022;DHT22;32779;52.264;6.154;2024-02-26T06:45:35;4.80;99.90
47022;DHT22;32779;52.264;6.154;2024-02-26T06:48:01;4.80;99.90
47022;DHT22;32779;52.264;6.154;2024-02-26T06:50:28;4.80;99.90
47022;DHT22;32779;52.264;6.154;2024-02-26T06:52:53;4.80;99.90
47022;DHT22;32779;52.264;6.154;2024-02-26T06:55:19;4.90;99.90
47022;DHT22;32779;52.264;6.154;2024-02-26T06:57:44;4.80;99.90
47022;DHT22;32779;52.264;6.154;2024-02-26T07:00:11;4.80;99.90
47022;DHT22;32779;52.264;6.154;2024-02-26T07:02:40;4.80;99.90
47022;DHT22;32779;52.264;6.154;2024-02-26T07:05:06;4.90;99.90
47022;DHT22;32779;52.264;6.154;2024-02-26T07:07:32;4.80;99.90
47022;DHT22;32779;52.264;6.154;2024-02-26T07:09:57;4.90;99.90
47022;DHT22;32779;52.264;6.154;2024-02-26T07:12:23;4.90;99.90
47022;DHT22;32779;52.264;6.154;2024-02-26T07:14:49;4.80;99.90
47022;DHT22;32779;52.264;6.154;2024-02-26T07:17:16;4.80;99.90
47022;DHT22;32779;52.264;6.154;2024-02-26T07:19:42;4.80;99.90
47022;DHT22;32779;52.264;6.154;2024-02-26T07:22:07;4.80;99.90
47022;DHT22;32779;52.264;6.154;2024-02-26T07:24:33;4.80;99.90
47022;DHT22;32779;52.264;6.154;2024-02-26T07:26:59;4.80;99.90
47022;DHT22;32779;52.264;6.154;2024-02-26T07:29:24;4.80;99.90
47022;DHT22;32779;52.264;6.154;2024-02-26T07:31:50;4.90;99.90
47022;DHT22;32779;52.264;6.154;2024-02-26T07:34:15;4.90;99.90
47022;DHT22;32779;52.264;6.154;2024-02-26T07:36:41;4.90;99.90
47022;DHT22;32779;52.264;6.154;2024-02-26T07:39:06;4.90;99.90
47022;DHT22;32779;52.264;6.154;2024-02-26T07:41:32;4.80;99.90
47022;DHT22;32779;52.264;6.154;2024-02-26T07:43:58;4.80;99.90
47022;DHT22;32779;52.264;6.154;2024-02-26T07:46:23;4.90;99.90
47022;DHT22;32779;52.264;6.154;2024-02-26T07:48:49;4.90;99.90
47022;DHT22;32779;52.264;6.154;2024-02-26T07:51:15;4.90;99.90
47022;DHT22;32779;52.264;6.154;2024-02-26T07:53:41;4.80;99.90
47022;DHT22;32779;52.264;6.154;2024-02-26T07:56:06;4.90;99.90
47022;DHT22;32779;52.264;6.154;2024-02-26T07:58:32;4.90;99.90
47022;DHT22;32779;52.264;6.154;2024-02-26T08:00:58;4.90;99.90
47022;DHT22;32779;52.264;6.154;2024-02-26T08:03:24;4.90;99.90
47022;DHT22;32779;52.264;6.154;2024-02-26T08:05:51;5.00;99.90
47022;DHT22;32779;52.264;6.154;2024-02-26T08:08:16;4.90;99.90
47022;DHT22;32779;52.264;6.154;2024-02-26T08:10:42;5.00;99.90
47022;DHT22;32779;52.264;6.154;2024-02-26T08:13:08;5.00;99.90
47022;DHT22;32779;52.264;6.154;2024-02-26T08:15:34;5.00;99.90
47022;DHT22;32779;52.264;6.154;2024-02-26T08:18:01;5.00;99.90
47022;DHT22;32779;52.264;6.154;2024-02-26T08:20:28;5.00;99.90
47022;DHT22;32779;52.264;6.154;2024-02-26T08:22:54;5.00;99.90
47022;DHT22;32779;52.264;6.154;2024-02-26T08:25:20;5.00;99.90
47022;DHT22;32779;52.264;6.154;2024-02-26T08:27:45;5.10;99.90
47022;DHT22;32779;52.264;6.154;2024-02-26T08:30:13;5.00;99.90
47022;DHT22;32779;52.264;6.154;2024-02-26T08:32:42;5.10;99.90
47022;DHT22;32779;52.264;6.154;2024-02-26T08:35:08;5.10;99.90
47022;DHT22;32779;52.264;6.154;2024-02-26T08:37:33;5.10;99.90
47022;DHT22;32779;52.264;6.154;2024-02-26T08:39:59;5.10;99.90
47022;DHT22;32779;52.264;6.154;2024-02-26T08:42:24;5.10;99.90
47022;DHT22;32779;52.264;6.154;2024-02-26T08:44:50;5.10;99.90
47022;DHT22;32779;52.264;6.154;2024-02-26T08:47:16;5.10;99.90
47022;DHT22;32779;52.264;6.154;2024-02-26T08:49:45;5.10;99.90
47022;DHT22;32779;52.264;6.154;2024-02-26T08:52:11;5.10;99.90
47022;DHT22;32779;52.264;6.154;2024-02-26T08:54:36;5.10;99.90
47022;DHT22;32779;52.264;6.154;2024-02-26T08:57:02;5.10;99.90
47022;DHT22;32779;52.264;6.154;2024-02-26T08:59:28;5.10;99.90
47022;DHT22;32779;52.264;6.154;2024-02-26T09:01:54;5.10;99.90
47022;DHT22;32779;52.264;6.154;2024-02-26T09:04:19;5.10;99.90
47022;DHT22;32779;52.264;6.154;2024-02-26T09:06:46;5.10;99.90
47022;DHT22;32779;52.264;6.154;2024-02-26T09:09:11;5.10;99.90
47022;DHT22;32779;52.264;6.154;2024-02-26T09:11:37;5.10;99.90
47022;DHT22;32779;52.264;6.154;2024-02-26T09:14:02;5.10;99.90
47022;DHT22;32779;52.264;6.154;2024-02-26T09:16:29;5.10;99.90
47022;DHT22;32779;52.264;6.154;2024-02-26T09:18:54;5.20;99.90
47022;DHT22;32779;52.264;6.154;2024-02-26T09:21:20;5.20;99.90
47022;DHT22;32779;52.264;6.154;2024-02-26T09:23:49;5.20;99.90
47022;DHT22;32779;52.264;6.154;2024-02-26T09:26:15;5.20;99.90
47022;DHT22;32779;52.264;6.154;2024-02-26T09:28:41;5.20;99.90
47022;DHT22;32779;52.264;6.154;2024-02-26T09:31:06;5.20;99.90
47022;DHT22;32779;52.264;6.154;2024-02-26T09:33:32;5.30;99.90
47022;DHT22;32779;52.264;6.154;2024-02-26T09:35:58;5.30;99.90
47022;DHT22;32779;52.264;6.154;2024-02-26T09:38:26;5.30;99.90
47022;DHT22;32779;52.264;6.154;2024-02-26T09:40:52;5.30;99.90
47022;DHT22;32779;52.264;6.154;2024-02-26T09:43:22;5.30;99.90
47022;DHT22;32779;52.264;6.154;2024-02-26T09:45:53;5.30;99.90
47022;DHT22;32779;52.264;6.154;2024-02-26T09:48:18;5.30;99.90
47022;DHT22;32779;52.264;6.154;2024-02-26T09:50:45;5.30;99.90
47022;DHT22;32779;52.264;6.154;2024-02-26T09:53:12;5.30;99.90
47022;DHT22;32779;52.264;6.154;2024-02-26T09:55:40;5.30;99.90
47022;DHT22;32779;52.264;6.154;2024-02-26T09:58:06;5.30;99.90
47022;DHT22;32779;52.264;6.154;2024-02-26T10:00:32;5.30;99.90
47022;DHT22;32779;52.264;6.154;2024-02-26T10:03:04;5.30;99.90
47022;DHT22;32779;52.264;6.154;2024-02-26T10:05:32;5.30;99.90
47022;DHT22;32779;52.264;6.154;2024-02-26T10:07:59;5.30;99.90
47022;DHT22;32779;52.264;6.154;2024-02-26T10:10:28;5.40;99.90
47022;DHT22;32779;52.264;6.154;2024-02-26T10:12:54;5.40;99.90
47022;DHT22;32779;52.264;6.154;2024-02-26T10:15:20;5.40;99.90
47022;DHT22;32779;52.264;6.154;2024-02-26T10:17:45;5.40;99.90
47022;DHT22;32779;52.264;6.154;2024-02-26T10:20:16;5.40;99.90
47022;DHT22;32779;52.264;6.154;2024-02-26T10:22:49;5.40;99.90
47022;DHT22;32779;52.264;6.154;2024-02-26T10:25:14;5.40;99.90
47022;DHT22;32779;52.264;6.154;2024-02-26T10:27:41;5.40;99.90
47022;DHT22;32779;52.264;6.154;2024-02-26T10:30:20;5.40;99.90
47022;DHT22;32779;52.264;6.154;2024-02-26T10:32:47;5.40;99.90
47022;DHT22;32779;52.264;6.154;2024-02-26T10:35:14;5.40;99.90
47022;DHT22;32779;52.264;6.154;2024-02-26T10:37:41;5.40;99.90
47022;DHT22;32779;52.264;6.154;2024-02-26T10:40:10;5.50;99.90
47022;DHT22;32779;52.264;6.154;2024-02-26T10:42:36;5.50;99.90
47022;DHT22;32779;52.264;6.154;2024-02-26T10:45:03;5.50;99.90
47022;DHT22;32779;52.264;6.154;2024-02-26T10:47:29;5.50;99.90
47022;DHT22;32779;52.264;6.154;2024-02-26T10:49:56;5.60;99.90
47022;DHT22;32779;52.264;6.154;2024-02-26T10:52:23;5.50;99.90
47022;DHT22;32779;52.264;6.154;2024-02-26T10:54:54;5.50;99.90
47022;DHT22;32779;52.264;6.154;2024-02-26T10:57:21;5.50;99.90
47022;DHT22;32779;52.264;6.154;2024-02-26T10:59:48;5.50;99.90
47022;DHT22;32779;52.264;6.154;2024-02-26T11:02:14;5.60;99.90
47022;DHT22;32779;52.264;6.154;2024-02-26T11:04:40;5.60;99.90
47022;DHT22;32779;52.264;6.154;2024-02-26T11:07:09;5.60;99.90
47022;DHT22;32779;52.264;6.154;2024-02-26T11:09:35;5.60;99.90
47022;DHT22;32779;52.264;6.154;2024-02-26T11:12:02;5.60;99.90
47022;DHT22;32779;52.264;6.154;2024-02-26T11:14:29;5.60;99.90
47022;DHT22;32779;52.264;6.154;2024-02-26T11:16:56;5.60;99.90
47022;DHT22;32779;52.264;6.154;2024-02-26T11:19:22;5.60;99.90
47022;DHT22;32779;52.264;6.154;2024-02-26T11:21:49;5.60;99.90
47022;DHT22;32779;52.264;6.154;2024-02-26T11:24:16;5.60;99.90
47022;DHT22;32779;52.264;6.154;2024-02-26T11:26:55;5.60;99.90
47022;DHT22;32779;52.264;6.154;2024-02-26T11:29:26;5.60;99.90
47022;DHT22;32779;52.264;6.154;2024-02-26T11:31:53;5.70;99.90
47022;DHT22;32779;52.264;6.154;2024-02-26T11:34:18;5.70;99.90
47022;DHT22;32779;52.264;6.154;2024-02-26T11:36:45;5.70;99.90
47022;DHT22;32779;52.264;6.154;2024-02-26T11:39:12;5.70;99.90
47022;DHT22;32779;52.264;6.154;2024-02-26T11:41:38;5.70;99.90
47022;DHT22;32779;52.264;6.154;2024-02-26T11:44:04;5.70;99.90
47022;DHT22;32779;52.264;6.154;2024-02-26T11:46:42;5.70;99.90
47022;DHT22;32779;52.264;6.154;2024-02-26T11:51:56;5.70;99.90
47022;DHT22;32779;52.264;6.154;2024-02-26T11:54:48;5.70;99.90
47022;DHT22;32779;52.264;6.154;2024-02-26T11:57:27;5.60;99.90
47022;DHT22;32779;52.264;6.154;2024-02-26T11:59:57;5.70;99.90
47022;DHT22;32779;52.264;6.154;2024-02-26T12:05:22;5.70;99.90
47022;DHT22;32779;52.264;6.154;2024-02-26T12:07:54;5.70;99.90
47022;DHT22;32779;52.264;6.154;2024-02-26T12:10:32;5.70;99.90
47022;DHT22;32779;52.264;6.154;2024-02-26T12:15:38;5.70;99.90
47022;DHT22;32779;52.264;6.154;2024-02-26T12:18:06;5.70;99.90
47022;DHT22;32779;52.264;6.154;2024-02-26T12:20:33;5.70;99.90
47022;DHT22;32779;52.264;6.154;2024-02-26T12:22:59;5.70;99.90
47022;DHT22;32779;52.264;6.154;2024-02-26T12:25:28;5.80;99.90
47022;DHT22;32779;52.264;6.154;2024-02-26T12:27:55;5.80;99.90
47022;DHT22;32779;52.264;6.154;2024-02-26T12:30:21;5.80;99.90
47022;DHT22;32779;52.264;6.154;2024-02-26T12:32:47;5.80;99.90
47022;DHT22;32779;52.264;6.154;2024-02-26T12:35:13;5.80;99.90
47022;DHT22;32779;52.264;6.154;2024-02-26T12:37:39;5.80;99.90
47022;DHT22;32779;52.264;6.154;2024-02-26T12:40:07;5.80;99.90
47022;DHT22;32779;52.264;6.154;2024-02-26T12:42:36;5.80;99.90
47022;DHT22;32779;52.264;6.154;2024-02-26T12:45:06;5.80;99.90
47022;DHT22;32779;52.264;6.154;2024-02-26T12:47:38;5.80;99.90
47022;DHT22;32779;52.264;6.154;2024-02-26T12:50:05;5.80;99.90
47022;DHT22;32779;52.264;6.154;2024-02-26T12:52:35;5.70;99.90
47022;DHT22;32779;52.264;6.154;2024-02-26T12:55:02;5.70;99.90
47022;DHT22;32779;52.264;6.154;2024-02-26T12:57:30;5.70;99.90
47022;DHT22;32779;52.264;6.154;2024-02-26T12:59:57;5.70;99.90
47022;DHT22;32779;52.264;6.154;2024-02-26T13:02:23;5.80;99.90
47022;DHT22;32779;52.264;6.154;2024-02-26T13:04:49;5.80;99.90
47022;DHT22;32779;52.264;6.154;2024-02-26T13:07:15;5.80;99.90
47022;DHT22;32779;52.264;6.154;2024-02-26T13:09:41;5.80;99.90
47022;DHT22;32779;52.264;6.154;2024-02-26T13:12:07;5.90;99.90
47022;DHT22;32779;52.264;6.154;2024-02-26T13:14:33;5.90;99.90
47022;DHT22;32779;52.264;6.154;2024-02-26T13:16:59;5.90;99.90
47022;DHT22;32779;52.264;6.154;2024-02-26T13:19:26;6.00;99.90
47022;DHT22;32779;52.264;6.154;2024-02-26T13:21:53;6.00;99.90
47022;DHT22;32779;52.264;6.154;2024-02-26T13:24:20;6.10;99.90
47022;DHT22;32779;52.264;6.154;2024-02-26T13:26:46;6.10;99.90
47022;DHT22;32779;52.264;6.154;2024-02-26T13:29:18;6.20;99.90
47022;DHT22;32779;52.264;6.154;2024-02-26T13:31:44;6.20;99.90
47022;DHT22;32779;52.264;6.154;2024-02-26T13:34:09;6.20;99.90
47022;DHT22;32779;52.264;6.154;2024-02-26T13:36:35;6.20;99.90
47022;DHT22;32779;52.264;6.154;2024-02-26T13:39:01;6.20;99.90
47022;DHT22;32779;52.264;6.154;2024-02-26T13:41:30;6.30;99.90
47022;DHT22;32779;52.264;6.154;2024-02-26T13:43:56;6.30;99.90
47022;DHT22;32779;52.264;6.154;2024-02-26T13:46:23;6.30;99.90
47022;DHT22;32779;52.264;6.154;2024-02-26T13:48:48;6.40;99.90
47022;DHT22;32779;52.264;6.154;2024-02-26T13:51:14;6.40;99.90
47022;DHT22;32779;52.264;6.154;2024-02-26T13:53:40;6.40;99.90
47022;DHT22;32779;52.264;6.154;2024-02-26T13:56:06;6.40;99.90
47022;DHT22;32779;52.264;6.154;2024-02-26T13:58:32;6.40;99.90
47022;DHT22;32779;52.264;6.154;2024-02-26T14:00:58;6.40;99.90
47022;DHT22;32779;52.264;6.154;2024-02-26T14:03:25;6.40;99.90
47022;DHT22;32779;52.264;6.154;2024-02-26T14:05:50;6.50;99.90
47022;DHT22;32779;52.264;6.154;2024-02-26T14:08:16;6.40;99.90
47022;DHT22;32779;52.264;6.154;2024-02-26T14:10:41;6.50;99.90
47022;DHT22;32779;52.264;6.154;2024-02-26T14:13:07;6.50;99.90
47022;DHT22;32779;52.264;6.154;2024-02-26T14:15:34;6.50;99.90
47022;DHT22;32779;52.264;6.154;2024-02-26T14:18:01;6.50;99.90
47022;DHT22;32779;52.264;6.154;2024-02-26T14:20:28;6.40;99.90
47022;DHT22;32779;52.264;6.154;2024-02-26T14:22:54;6.40;99.90
47022;DHT22;32779;52.264;6.154;2024-02-26T14:25:21;6.30;99.90
47022;DHT22;32779;52.264;6.154;2024-02-26T14:27:47;6.30;99.90
47022;DHT22;32779;52.264;6.154;2024-02-26T14:30:13;6.30;99.90
47022;DHT22;32779;52.264;6.154;2024-02-26T14:32:38;6.30;99.90
47022;DHT22;32779;52.264;6.154;2024-02-26T14:35:08;6.30;99.90
47022;DHT22;32779;52.264;6.154;2024-02-26T14:37:37;6.40;99.90
47022;DHT22;32779;52.264;6.154;2024-02-26T14:40:03;6.40;99.90
47022;DHT22;32779;52.264;6.154;2024-02-26T14:42:29;6.30;99.90
47022;DHT22;32779;52.264;6.154;2024-02-26T14:44:54;6.30;99.90
47022;DHT22;32779;52.264;6.154;2024-02-26T14:47:20;6.30;99.90
47022;DHT22;32779;52.264;6.154;2024-02-26T14:49:46;6.30;99.90
47022;DHT22;32779;52.264;6.154;2024-02-26T14:52:14;6.30;99.90
47022;DHT22;32779;52.264;6.154;2024-02-26T14:54:39;6.30;99.90
47022;DHT22;32779;52.264;6.154;2024-02-26T14:57:05;6.30;99.90
47022;DHT22;32779;52.264;6.154;2024-02-26T14:59:32;6.30;99.90
47022;DHT22;32779;52.264;6.154;2024-02-26T15:01:58;6.40;99.90
47022;DHT22;32779;52.264;6.154;2024-02-26T15:04:25;6.40;99.90
47022;DHT22;32779;52.264;6.154;2024-02-26T15:06:51;6.40;99.90
47022;DHT22;32779;52.264;6.154;2024-02-26T15:09:17;6.30;99.90
47022;DHT22;32779;52.264;6.154;2024-02-26T15:11:43;6.30;99.90
47022;DHT22;32779;52.264;6.154;2024-02-26T15:14:10;6.30;99.90
47022;DHT22;32779;52.264;6.154;2024-02-26T15:16:36;6.30;99.90
47022;DHT22;32779;52.264;6.154;2024-02-26T15:19:02;6.30;99.90
47022;DHT22;32779;52.264;6.154;2024-02-26T15:21:28;6.30;99.90
47022;DHT22;32779;52.264;6.154;2024-02-26T15:23:54;6.30;99.90
47022;DHT22;32779;52.264;6.154;2024-02-26T15:26:20;6.30;99.90
47022;DHT22;32779;52.264;6.154;2024-02-26T15:28:46;6.30;99.90
47022;DHT22;32779;52.264;6.154;2024-02-26T15:31:11;6.30;99.90
47022;DHT22;32779;52.264;6.154;2024-02-26T15:33:37;6.30;99.90
47022;DHT22;32779;52.264;6.154;2024-02-26T15:36:03;6.20;99.90
47022;DHT22;32779;52.264;6.154;2024-02-26T15:38:29;6.20;99.90
47022;DHT22;32779;52.264;6.154;2024-02-26T15:40:55;6.20;99.90
47022;DHT22;32779;52.264;6.154;2024-02-26T15:43:20;6.20;99.90
47022;DHT22;32779;52.264;6.154;2024-02-26T15:45:47;6.20;99.90
47022;DHT22;32779;52.264;6.154;2024-02-26T15:48:13;6.20;99.90